sensor_id;sensor_type;location;lat;lon;timestamp;P1;durP1;ratioP1;P2;durP2;ratioP2
49776;SDS011;35673;51.482;7.436;2022-10-16T00:01:34;7.47;;;1.77;;
49776;SDS011;35673;51.482;7.436;2022-10-16T00:04:00;3.00;;;1.65;;
49776;SDS011;35673;51.482;7.436;2022-10-16T00:06:27;4.53;;;2.08;;
49776;SDS011;35673;51.482;7.436;2022-10-16T00:08:53;3.97;;;1.92;;
49776;SDS011;35673;51.482;7.436;2022-10-16T00:11:21;2.65;;;1.27;;
49776;SDS011;35673;51.482;7.436;2022-10-16T00:13:50;1.77;;;1.23;;
49776;SDS011;35673;51.482;7.436;2022-10-16T00:16:17;7.60;;;1.85;;
49776;SDS011;35673;51.482;7.436;2022-10-16T00:18:43;1.98;;;1.38;;
49776;SDS011;35673;51.482;7.436;2022-10-16T00:21:10;5.28;;;1.48;;
49776;SDS011;35673;51.482;7.436;2022-10-16T00:23:41;5.30;;;1.55;;
49776;SDS011;35673;51.482;7.436;2022-10-16T00:26:11;3.97;;;1.35;;
49776;SDS011;35673;51.482;7.436;2022-10-16T00:28:38;5.75;;;1.63;;
49776;SDS011;35673;51.482;7.436;2022-10-16T00:31:08;3.33;;;1.52;;
49776;SDS011;35673;51.482;7.436;2022-10-16T00:33:36;3.00;;;1.58;;
49776;SDS011;35673;51.482;7.436;2022-10-16T00:36:03;4.63;;;1.50;;
49776;SDS011;35673;51.482;7.436;2022-10-16T00:38:30;3.22;;;1.50;;
49776;SDS011;35673;51.482;7.436;2022-10-16T00:40:56;1.92;;;1.52;;
49776;SDS011;35673;51.482;7.436;2022-10-16T00:43:39;4.63;;;1.65;;
49776;SDS011;35673;51.482;7.436;2022-10-16T00:46:13;1.88;;;1.13;;
49776;SDS011;35673;51.482;7.436;2022-10-16T00:48:44;3.28;;;1.27;;
49776;SDS011;35673;51.482;7.436;2022-10-16T00:51:18;2.75;;;1.48;;
49776;SDS011;35673;51.482;7.436;2022-10-16T00:53:46;1.75;;;1.10;;
49776;SDS011;35673;51.482;7.436;2022-10-16T00:56:14;2.40;;;1.33;;
49776;SDS011;35673;51.482;7.436;2022-10-16T00:58:39;1.92;;;1.25;;
49776;SDS011;35673;51.482;7.436;2022-10-16T01:01:05;1.48;;;1.00;;
49776;SDS011;35673;51.482;7.436;2022-10-16T01:03:31;3.80;;;1.35;;
49776;SDS011;35673;51.482;7.436;2022-10-16T01:17:18;4.05;;;1.58;;
49776;SDS011;35673;51.482;7.436;2022-10-16T01:20:10;5.03;;;1.35;;
49776;SDS011;35673;51.482;7.436;2022-10-16T01:22:57;4.72;;;1.63;;
49776;SDS011;35673;51.482;7.436;2022-10-16T01:28:20;1.60;;;0.80;;
49776;SDS011;35673;51.482;7.436;2022-10-16T01:30:50;3.72;;;1.17;;
49776;SDS011;35673;51.482;7.436;2022-10-16T01:33:21;3.40;;;1.33;;
49776;SDS011;35673;51.482;7.436;2022-10-16T01:35:56;1.45;;;0.90;;
49776;SDS011;35673;51.482;7.436;2022-10-16T01:38:29;2.55;;;1.60;;
49776;SDS011;35673;51.482;7.436;2022-10-16T01:41:13;2.75;;;1.13;;
49776;SDS011;35673;51.482;7.436;2022-10-16T01:43:52;1.45;;;0.60;;
49776;SDS011;35673;51.482;7.436;2022-10-16T01:46:24;1.35;;;0.90;;
49776;SDS011;35673;51.482;7.436;2022-10-16T01:48:52;4.13;;;1.05;;
49776;SDS011;35673;51.482;7.436;2022-10-16T01:51:18;3.15;;;1.15;;
49776;SDS011;35673;51.482;7.436;2022-10-16T01:53:47;2.03;;;1.00;;
49776;SDS011;35673;51.482;7.436;2022-10-16T01:56:15;2.80;;;1.20;;
49776;SDS011;35673;51.482;7.436;2022-10-16T01:58:53;1.83;;;1.10;;
49776;SDS011;35673;51.482;7.436;2022-10-16T02:01:23;6.53;;;1.75;;
49776;SDS011;35673;51.482;7.436;2022-10-16T02:03:52;2.00;;;1.15;;
49776;SDS011;35673;51.482;7.436;2022-10-16T02:06:21;4.20;;;1.38;;
49776;SDS011;35673;51.482;7.436;2022-10-16T02:08:47;3.10;;;0.93;;
49776;SDS011;35673;51.482;7.436;2022-10-16T02:11:13;3.50;;;1.10;;
49776;SDS011;35673;51.482;7.436;2022-10-16T02:13:40;2.13;;;1.02;;
49776;SDS011;35673;51.482;7.436;2022-10-16T02:16:10;3.05;;;1.15;;
49776;SDS011;35673;51.482;7.436;2022-10-16T02:18:37;2.28;;;1.52;;
49776;SDS011;35673;51.482;7.436;2022-10-16T02:21:09;2.50;;;0.90;;
49776;SDS011;35673;51.482;7.436;2022-10-16T02:29:33;2.45;;;1.00;;
49776;SDS011;35673;51.482;7.436;2022-10-16T02:32:04;3.67;;;1.00;;
49776;SDS011;35673;51.482;7.436;2022-10-16T02:34:32;4.00;;;1.60;;
49776;SDS011;35673;51.482;7.436;2022-10-16T02:36:59;2.75;;;1.00;;
49776;SDS011;35673;51.482;7.436;2022-10-16T02:39:27;2.22;;;0.95;;
49776;SDS011;35673;51.482;7.436;2022-10-16T02:41:54;1.83;;;1.35;;
49776;SDS011;35673;51.482;7.436;2022-10-16T02:44:19;5.32;;;1.00;;
49776;SDS011;35673;51.482;7.436;2022-10-16T02:46:45;2.50;;;1.23;;
49776;SDS011;35673;51.482;7.436;2022-10-16T02:49:10;1.52;;;1.20;;
49776;SDS011;35673;51.482;7.436;2022-10-16T02:51:36;1.70;;;1.17;;
49776;SDS011;35673;51.482;7.436;2022-10-16T02:54:02;1.50;;;1.08;;
49776;SDS011;35673;51.482;7.436;2022-10-16T02:56:28;5.95;;;1.20;;
49776;SDS011;35673;51.482;7.436;2022-10-16T02:58:54;1.92;;;0.88;;
49776;SDS011;35673;51.482;7.436;2022-10-16T03:01:20;4.25;;;1.00;;
49776;SDS011;35673;51.482;7.436;2022-10-16T03:03:46;3.42;;;1.13;;
49776;SDS011;35673;51.482;7.436;2022-10-16T03:06:11;1.30;;;0.80;;
49776;SDS011;35673;51.482;7.436;2022-10-16T03:08:37;1.30;;;0.73;;
49776;SDS011;35673;51.482;7.436;2022-10-16T03:11:02;5.72;;;1.13;;
49776;SDS011;35673;51.482;7.436;2022-10-16T03:13:28;2.08;;;0.88;;
49776;SDS011;35673;51.482;7.436;2022-10-16T03:15:53;2.65;;;1.05;;
49776;SDS011;35673;51.482;7.436;2022-10-16T03:18:19;2.92;;;1.00;;
49776;SDS011;35673;51.482;7.436;2022-10-16T03:20:44;1.00;;;0.75;;
49776;SDS011;35673;51.482;7.436;2022-10-16T03:23:10;1.10;;;0.77;;
49776;SDS011;35673;51.482;7.436;2022-10-16T03:25:36;4.18;;;0.68;;
49776;SDS011;35673;51.482;7.436;2022-10-16T03:28:02;2.45;;;0.90;;
49776;SDS011;35673;51.482;7.436;2022-10-16T03:30:28;2.35;;;0.82;;
49776;SDS011;35673;51.482;7.436;2022-10-16T03:32:54;1.17;;;0.77;;
49776;SDS011;35673;51.482;7.436;2022-10-16T03:35:20;0.77;;;0.63;;
49776;SDS011;35673;51.482;7.436;2022-10-16T03:37:48;1.33;;;0.70;;
49776;SDS011;35673;51.482;7.436;2022-10-16T03:40:14;5.50;;;0.88;;
49776;SDS011;35673;51.482;7.436;2022-10-16T03:42:41;1.70;;;0.60;;
49776;SDS011;35673;51.482;7.436;2022-10-16T03:45:08;3.10;;;0.85;;
49776;SDS011;35673;51.482;7.436;2022-10-16T03:47:35;0.85;;;0.60;;
49776;SDS011;35673;51.482;7.436;2022-10-16T03:50:00;1.83;;;0.68;;
49776;SDS011;35673;51.482;7.436;2022-10-16T03:52:26;2.47;;;1.00;;
49776;SDS011;35673;51.482;7.436;2022-10-16T03:54:51;2.92;;;0.90;;
49776;SDS011;35673;51.482;7.436;2022-10-16T03:57:17;1.70;;;1.08;;
49776;SDS011;35673;51.482;7.436;2022-10-16T03:59:43;1.13;;;0.80;;
49776;SDS011;35673;51.482;7.436;2022-10-16T04:02:08;2.60;;;0.70;;
49776;SDS011;35673;51.482;7.436;2022-10-16T04:04:34;0.90;;;0.60;;
49776;SDS011;35673;51.482;7.436;2022-10-16T04:07:00;0.93;;;0.57;;
49776;SDS011;35673;51.482;7.436;2022-10-16T04:09:26;2.45;;;0.70;;
49776;SDS011;35673;51.482;7.436;2022-10-16T04:11:51;2.03;;;0.80;;
49776;SDS011;35673;51.482;7.436;2022-10-16T04:14:17;1.10;;;0.60;;
49776;SDS011;35673;51.482;7.436;2022-10-16T04:16:42;4.78;;;0.80;;
49776;SDS011;35673;51.482;7.436;2022-10-16T04:19:08;0.75;;;0.60;;
49776;SDS011;35673;51.482;7.436;2022-10-16T04:21:34;1.33;;;0.60;;
49776;SDS011;35673;51.482;7.436;2022-10-16T04:24:00;0.98;;;0.60;;
49776;SDS011;35673;51.482;7.436;2022-10-16T04:26:25;1.05;;;0.82;;
49776;SDS011;35673;51.482;7.436;2022-10-16T04:28:51;3.20;;;0.68;;
49776;SDS011;35673;51.482;7.436;2022-10-16T04:31:17;1.10;;;0.57;;
49776;SDS011;35673;51.482;7.436;2022-10-16T04:33:42;2.85;;;0.90;;
49776;SDS011;35673;51.482;7.436;2022-10-16T04:36:08;3.45;;;0.77;;
49776;SDS011;35673;51.482;7.436;2022-10-16T04:38:34;3.45;;;0.82;;
49776;SDS011;35673;51.482;7.436;2022-10-16T04:40:59;1.10;;;0.57;;
49776;SDS011;35673;51.482;7.436;2022-10-16T04:43:25;0.63;;;0.40;;
49776;SDS011;35673;51.482;7.436;2022-10-16T04:45:51;1.60;;;0.60;;
49776;SDS011;35673;51.482;7.436;2022-10-16T04:48:17;2.33;;;0.55;;
49776;SDS011;35673;51.482;7.436;2022-10-16T04:50:43;2.25;;;0.70;;
49776;SDS011;35673;51.482;7.436;2022-10-16T04:53:08;0.85;;;0.75;;
49776;SDS011;35673;51.482;7.436;2022-10-16T04:55:34;1.73;;;0.57;;
49776;SDS011;35673;51.482;7.436;2022-10-16T04:58:00;2.72;;;0.40;;
49776;SDS011;35673;51.482;7.436;2022-10-16T05:00:25;1.27;;;0.50;;
49776;SDS011;35673;51.482;7.436;2022-10-16T05:02:51;0.52;;;0.38;;
49776;SDS011;35673;51.482;7.436;2022-10-16T05:05:17;2.38;;;0.50;;
49776;SDS011;35673;51.482;7.436;2022-10-16T05:07:46;3.47;;;0.63;;
49776;SDS011;35673;51.482;7.436;2022-10-16T05:10:12;0.75;;;0.43;;
49776;SDS011;35673;51.482;7.436;2022-10-16T05:12:38;2.65;;;0.80;;
49776;SDS011;35673;51.482;7.436;2022-10-16T05:15:04;1.88;;;0.50;;
49776;SDS011;35673;51.482;7.436;2022-10-16T05:17:30;2.47;;;0.55;;
49776;SDS011;35673;51.482;7.436;2022-10-16T05:23:17;1.88;;;0.50;;
49776;SDS011;35673;51.482;7.436;2022-10-16T05:25:43;0.50;;;0.50;;
49776;SDS011;35673;51.482;7.436;2022-10-16T05:28:16;7.28;;;0.70;;
49776;SDS011;35673;51.482;7.436;2022-10-16T05:30:41;2.28;;;0.70;;
49776;SDS011;35673;51.482;7.436;2022-10-16T05:33:07;1.25;;;0.70;;
49776;SDS011;35673;51.482;7.436;2022-10-16T05:35:33;0.93;;;0.52;;
49776;SDS011;35673;51.482;7.436;2022-10-16T05:37:59;1.02;;;0.50;;
49776;SDS011;35673;51.482;7.436;2022-10-16T05:40:24;3.58;;;1.00;;
49776;SDS011;35673;51.482;7.436;2022-10-16T05:42:54;2.05;;;0.40;;
49776;SDS011;35673;51.482;7.436;2022-10-16T05:45:20;0.65;;;0.50;;
49776;SDS011;35673;51.482;7.436;2022-10-16T05:47:45;1.55;;;0.40;;
49776;SDS011;35673;51.482;7.436;2022-10-16T05:50:11;2.50;;;1.10;;
49776;SDS011;35673;51.482;7.436;2022-10-16T05:52:36;1.83;;;0.70;;
49776;SDS011;35673;51.482;7.436;2022-10-16T05:55:02;0.50;;;0.50;;
49776;SDS011;35673;51.482;7.436;2022-10-16T05:57:28;0.63;;;0.50;;
49776;SDS011;35673;51.482;7.436;2022-10-16T05:59:54;1.23;;;0.50;;
49776;SDS011;35673;51.482;7.436;2022-10-16T06:02:20;1.33;;;0.85;;
49776;SDS011;35673;51.482;7.436;2022-10-16T06:04:46;0.85;;;0.60;;
49776;SDS011;35673;51.482;7.436;2022-10-16T06:07:12;0.75;;;0.52;;
49776;SDS011;35673;51.482;7.436;2022-10-16T06:09:37;1.38;;;0.57;;
49776;SDS011;35673;51.482;7.436;2022-10-16T06:12:03;3.33;;;0.70;;
49776;SDS011;35673;51.482;7.436;2022-10-16T06:14:28;2.17;;;0.77;;
49776;SDS011;35673;51.482;7.436;2022-10-16T06:16:54;1.02;;;0.52;;
49776;SDS011;35673;51.482;7.436;2022-10-16T06:19:19;1.13;;;0.60;;
49776;SDS011;35673;51.482;7.436;2022-10-16T06:21:45;3.78;;;0.80;;
49776;SDS011;35673;51.482;7.436;2022-10-16T06:24:11;1.67;;;0.60;;
49776;SDS011;35673;51.482;7.436;2022-10-16T06:26:36;1.95;;;0.80;;
49776;SDS011;35673;51.482;7.436;2022-10-16T06:29:03;1.10;;;0.60;;
49776;SDS011;35673;51.482;7.436;2022-10-16T06:31:29;1.27;;;0.77;;
49776;SDS011;35673;51.482;7.436;2022-10-16T06:33:56;1.70;;;1.08;;
49776;SDS011;35673;51.482;7.436;2022-10-16T06:36:23;4.10;;;0.60;;
49776;SDS011;35673;51.482;7.436;2022-10-16T06:38:49;1.48;;;0.57;;
49776;SDS011;35673;51.482;7.436;2022-10-16T06:41:16;4.28;;;0.80;;
49776;SDS011;35673;51.482;7.436;2022-10-16T06:43:43;1.15;;;0.88;;
49776;SDS011;35673;51.482;7.436;2022-10-16T06:46:12;3.35;;;0.77;;
49776;SDS011;35673;51.482;7.436;2022-10-16T06:48:39;1.40;;;0.50;;
49776;SDS011;35673;51.482;7.436;2022-10-16T06:53:35;4.63;;;1.10;;
49776;SDS011;35673;51.482;7.436;2022-10-16T06:58:34;1.70;;;0.60;;
49776;SDS011;35673;51.482;7.436;2022-10-16T07:01:00;0.73;;;0.70;;
49776;SDS011;35673;51.482;7.436;2022-10-16T07:03:25;1.25;;;0.88;;
49776;SDS011;35673;51.482;7.436;2022-10-16T07:05:53;4.53;;;0.75;;
49776;SDS011;35673;51.482;7.436;2022-10-16T07:08:19;1.42;;;0.70;;
49776;SDS011;35673;51.482;7.436;2022-10-16T07:10:45;2.70;;;0.82;;
49776;SDS011;35673;51.482;7.436;2022-10-16T07:13:10;2.17;;;0.73;;
49776;SDS011;35673;51.482;7.436;2022-10-16T07:15:38;1.70;;;0.80;;
49776;SDS011;35673;51.482;7.436;2022-10-16T07:18:03;2.28;;;1.30;;
49776;SDS011;35673;51.482;7.436;2022-10-16T07:20:29;2.83;;;1.40;;
49776;SDS011;35673;51.482;7.436;2022-10-16T07:22:54;4.25;;;1.65;;
49776;SDS011;35673;51.482;7.436;2022-10-16T07:25:20;2.15;;;1.10;;
49776;SDS011;35673;51.482;7.436;2022-10-16T07:27:45;1.77;;;0.88;;
49776;SDS011;35673;51.482;7.436;2022-10-16T07:30:11;1.10;;;0.90;;
49776;SDS011;35673;51.482;7.436;2022-10-16T07:32:37;1.20;;;0.68;;
49776;SDS011;35673;51.482;7.436;2022-10-16T07:35:02;3.78;;;1.10;;
49776;SDS011;35673;51.482;7.436;2022-10-16T07:37:28;2.30;;;0.80;;
49776;SDS011;35673;51.482;7.436;2022-10-16T07:39:54;3.50;;;0.65;;
49776;SDS011;35673;51.482;7.436;2022-10-16T07:42:19;3.13;;;1.13;;
49776;SDS011;35673;51.482;7.436;2022-10-16T07:44:45;1.40;;;1.20;;
49776;SDS011;35673;51.482;7.436;2022-10-16T07:47:11;2.22;;;1.30;;
49776;SDS011;35673;51.482;7.436;2022-10-16T07:49:36;2.35;;;0.90;;
49776;SDS011;35673;51.482;7.436;2022-10-16T07:52:02;1.80;;;0.80;;
49776;SDS011;35673;51.482;7.436;2022-10-16T07:54:28;5.82;;;0.90;;
49776;SDS011;35673;51.482;7.436;2022-10-16T07:56:53;2.72;;;0.90;;
49776;SDS011;35673;51.482;7.436;2022-10-16T07:59:19;1.95;;;1.20;;
49776;SDS011;35673;51.482;7.436;2022-10-16T08:01:45;1.70;;;0.88;;
49776;SDS011;35673;51.482;7.436;2022-10-16T08:04:10;4.53;;;0.82;;
49776;SDS011;35673;51.482;7.436;2022-10-16T08:06:37;1.55;;;0.77;;
49776;SDS011;35673;51.482;7.436;2022-10-16T08:09:05;1.55;;;0.70;;
49776;SDS011;35673;51.482;7.436;2022-10-16T08:11:31;4.10;;;0.70;;
49776;SDS011;35673;51.482;7.436;2022-10-16T08:13:57;2.08;;;0.85;;
49776;SDS011;35673;51.482;7.436;2022-10-16T08:16:22;1.48;;;1.08;;
49776;SDS011;35673;51.482;7.436;2022-10-16T08:18:48;2.67;;;1.15;;
49776;SDS011;35673;51.482;7.436;2022-10-16T08:21:17;6.72;;;0.93;;
49776;SDS011;35673;51.482;7.436;2022-10-16T08:23:44;2.47;;;0.70;;
49776;SDS011;35673;51.482;7.436;2022-10-16T08:26:10;1.67;;;0.95;;
49776;SDS011;35673;51.482;7.436;2022-10-16T08:28:36;2.47;;;0.75;;
49776;SDS011;35673;51.482;7.436;2022-10-16T08:31:13;2.58;;;0.80;;
49776;SDS011;35673;51.482;7.436;2022-10-16T08:33:41;2.20;;;0.77;;
49776;SDS011;35673;51.482;7.436;2022-10-16T08:36:09;3.22;;;0.60;;
49776;SDS011;35673;51.482;7.436;2022-10-16T08:38:36;4.82;;;1.05;;
49776;SDS011;35673;51.482;7.436;2022-10-16T08:46:31;1.93;;;0.80;;
49776;SDS011;35673;51.482;7.436;2022-10-16T08:48:58;1.95;;;0.90;;
49776;SDS011;35673;51.482;7.436;2022-10-16T08:51:32;1.45;;;0.80;;
49776;SDS011;35673;51.482;7.436;2022-10-16T08:54:04;1.25;;;0.60;;
49776;SDS011;35673;51.482;7.436;2022-10-16T08:56:49;3.13;;;0.95;;
49776;SDS011;35673;51.482;7.436;2022-10-16T08:59:14;2.50;;;0.70;;
49776;SDS011;35673;51.482;7.436;2022-10-16T09:01:43;2.78;;;0.68;;
49776;SDS011;35673;51.482;7.436;2022-10-16T09:07:11;3.03;;;0.68;;
49776;SDS011;35673;51.482;7.436;2022-10-16T09:12:33;2.95;;;0.52;;
49776;SDS011;35673;51.482;7.436;2022-10-16T09:18:15;4.88;;;0.50;;
49776;SDS011;35673;51.482;7.436;2022-10-16T09:20:55;2.63;;;0.75;;
49776;SDS011;35673;51.482;7.436;2022-10-16T09:23:43;3.78;;;1.05;;
49776;SDS011;35673;51.482;7.436;2022-10-16T09:26:09;1.70;;;0.40;;
49776;SDS011;35673;51.482;7.436;2022-10-16T09:28:38;3.13;;;1.00;;
49776;SDS011;35673;51.482;7.436;2022-10-16T09:31:04;1.20;;;0.40;;
49776;SDS011;35673;51.482;7.436;2022-10-16T09:33:32;3.85;;;1.58;;
49776;SDS011;35673;51.482;7.436;2022-10-16T09:36:02;2.67;;;0.70;;
49776;SDS011;35673;51.482;7.436;2022-10-16T09:38:31;1.90;;;0.40;;
49776;SDS011;35673;51.482;7.436;2022-10-16T09:40:59;5.45;;;0.80;;
49776;SDS011;35673;51.482;7.436;2022-10-16T09:43:34;5.10;;;0.80;;
49776;SDS011;35673;51.482;7.436;2022-10-16T09:46:27;0.95;;;0.20;;
49776;SDS011;35673;51.482;7.436;2022-10-16T09:48:59;3.28;;;0.65;;
49776;SDS011;35673;51.482;7.436;2022-10-16T09:51:33;3.33;;;0.30;;
49776;SDS011;35673;51.482;7.436;2022-10-16T09:54:02;2.25;;;0.40;;
49776;SDS011;35673;51.482;7.436;2022-10-16T09:56:37;2.78;;;0.43;;
49776;SDS011;35673;51.482;7.436;2022-10-16T09:59:13;4.10;;;0.85;;
49776;SDS011;35673;51.482;7.436;2022-10-16T10:01:50;1.55;;;0.30;;
49776;SDS011;35673;51.482;7.436;2022-10-16T10:04:17;1.38;;;0.45;;
49776;SDS011;35673;51.482;7.436;2022-10-16T10:06:48;1.30;;;0.52;;
49776;SDS011;35673;51.482;7.436;2022-10-16T10:09:23;2.42;;;0.47;;
49776;SDS011;35673;51.482;7.436;2022-10-16T10:11:50;1.13;;;0.75;;
49776;SDS011;35673;51.482;7.436;2022-10-16T10:14:20;3.13;;;0.52;;
49776;SDS011;35673;51.482;7.436;2022-10-16T10:16:48;1.90;;;0.40;;
49776;SDS011;35673;51.482;7.436;2022-10-16T10:19:15;2.95;;;0.50;;
49776;SDS011;35673;51.482;7.436;2022-10-16T10:21:42;2.58;;;0.32;;
49776;SDS011;35673;51.482;7.436;2022-10-16T10:24:12;0.93;;;0.22;;
49776;SDS011;35673;51.482;7.436;2022-10-16T10:26:40;3.05;;;0.38;;
49776;SDS011;35673;51.482;7.436;2022-10-16T10:29:16;1.27;;;0.35;;
49776;SDS011;35673;51.482;7.436;2022-10-16T10:31:52;2.85;;;0.50;;
49776;SDS011;35673;51.482;7.436;2022-10-16T10:39:52;10.20;;;4.80;;
49776;SDS011;35673;51.482;7.436;2022-10-16T10:42:37;2.83;;;1.63;;
49776;SDS011;35673;51.482;7.436;2022-10-16T10:45:17;3.72;;;0.35;;
49776;SDS011;35673;51.482;7.436;2022-10-16T10:53:18;3.13;;;0.50;;
49776;SDS011;35673;51.482;7.436;2022-10-16T10:58:48;2.58;;;0.60;;
49776;SDS011;35673;51.482;7.436;2022-10-16T11:01:48;4.35;;;1.40;;
49776;SDS011;35673;51.482;7.436;2022-10-16T11:06:55;4.35;;;0.50;;
49776;SDS011;35673;51.482;7.436;2022-10-16T11:09:36;2.63;;;0.82;;
49776;SDS011;35673;51.482;7.436;2022-10-16T11:17:30;5.50;;;0.85;;
49776;SDS011;35673;51.482;7.436;2022-10-16T11:20:02;1.67;;;0.32;;
49776;SDS011;35673;51.482;7.436;2022-10-16T11:22:42;3.53;;;0.90;;
49776;SDS011;35673;51.482;7.436;2022-10-16T11:25:30;1.95;;;0.40;;
49776;SDS011;35673;51.482;7.436;2022-10-16T11:30:53;4.07;;;0.73;;
49776;SDS011;35673;51.482;7.436;2022-10-16T11:33:25;2.53;;;0.30;;
49776;SDS011;35673;51.482;7.436;2022-10-16T11:36:08;3.47;;;0.40;;
49776;SDS011;35673;51.482;7.436;2022-10-16T11:38:43;3.03;;;0.60;;
49776;SDS011;35673;51.482;7.436;2022-10-16T11:41:18;2.75;;;0.35;;
49776;SDS011;35673;51.482;7.436;2022-10-16T11:43:56;2.70;;;0.20;;
49776;SDS011;35673;51.482;7.436;2022-10-16T11:46:31;1.63;;;0.52;;
49776;SDS011;35673;51.482;7.436;2022-10-16T11:49:03;4.05;;;1.15;;
49776;SDS011;35673;51.482;7.436;2022-10-16T11:51:38;1.08;;;0.30;;
49776;SDS011;35673;51.482;7.436;2022-10-16T11:56:32;1.15;;;0.20;;
49776;SDS011;35673;51.482;7.436;2022-10-16T12:05:06;0.63;;;0.32;;
49776;SDS011;35673;51.482;7.436;2022-10-16T12:07:39;3.60;;;0.70;;
49776;SDS011;35673;51.482;7.436;2022-10-16T12:10:19;1.30;;;0.30;;
49776;SDS011;35673;51.482;7.436;2022-10-16T12:12:47;0.77;;;0.35;;
49776;SDS011;35673;51.482;7.436;2022-10-16T12:17:45;1.67;;;0.30;;
49776;SDS011;35673;51.482;7.436;2022-10-16T12:22:37;1.45;;;0.40;;
49776;SDS011;35673;51.482;7.436;2022-10-16T12:25:31;1.77;;;0.40;;
49776;SDS011;35673;51.482;7.436;2022-10-16T12:28:06;1.23;;;0.20;;
49776;SDS011;35673;51.482;7.436;2022-10-16T12:30:58;1.75;;;0.45;;
49776;SDS011;35673;51.482;7.436;2022-10-16T12:33:27;2.97;;;0.52;;
49776;SDS011;35673;51.482;7.436;2022-10-16T12:35:58;1.95;;;0.40;;
49776;SDS011;35673;51.482;7.436;2022-10-16T12:38:37;1.27;;;0.20;;
49776;SDS011;35673;51.482;7.436;2022-10-16T12:41:11;1.55;;;0.30;;
49776;SDS011;35673;51.482;7.436;2022-10-16T12:48:35;2.38;;;0.80;;
49776;SDS011;35673;51.482;7.436;2022-10-16T12:56:35;0.90;;;0.20;;
49776;SDS011;35673;51.482;7.436;2022-10-16T12:59:15;2.33;;;0.70;;
49776;SDS011;35673;51.482;7.436;2022-10-16T13:23:29;2.78;;;0.40;;
49776;SDS011;35673;51.482;7.436;2022-10-16T13:31:26;3.88;;;0.40;;
49776;SDS011;35673;51.482;7.436;2022-10-16T13:33:53;3.03;;;0.40;;
49776;SDS011;35673;51.482;7.436;2022-10-16T13:36:25;3.75;;;1.75;;
49776;SDS011;35673;51.482;7.436;2022-10-16T13:41:45;2.10;;;0.60;;
49776;SDS011;35673;51.482;7.436;2022-10-16T13:44:15;3.55;;;0.60;;
49776;SDS011;35673;51.482;7.436;2022-10-16T13:46:45;1.35;;;0.10;;
49776;SDS011;35673;51.482;7.436;2022-10-16T13:49:12;1.33;;;0.47;;
49776;SDS011;35673;51.482;7.436;2022-10-16T13:51:40;1.55;;;0.30;;
49776;SDS011;35673;51.482;7.436;2022-10-16T13:54:08;1.05;;;0.55;;
49776;SDS011;35673;51.482;7.436;2022-10-16T13:56:38;1.88;;;0.50;;
49776;SDS011;35673;51.482;7.436;2022-10-16T13:59:05;1.15;;;0.60;;
49776;SDS011;35673;51.482;7.436;2022-10-16T14:01:46;1.83;;;0.65;;
49776;SDS011;35673;51.482;7.436;2022-10-16T14:04:12;2.33;;;0.30;;
49776;SDS011;35673;51.482;7.436;2022-10-16T14:06:43;1.02;;;0.20;;
49776;SDS011;35673;51.482;7.436;2022-10-16T14:11:56;2.10;;;0.40;;
49776;SDS011;35673;51.482;7.436;2022-10-16T14:14:23;0.70;;;0.22;;
49776;SDS011;35673;51.482;7.436;2022-10-16T14:16:51;1.48;;;0.65;;
49776;SDS011;35673;51.482;7.436;2022-10-16T14:19:19;2.10;;;0.68;;
49776;SDS011;35673;51.482;7.436;2022-10-16T14:21:53;1.70;;;0.17;;
49776;SDS011;35673;51.482;7.436;2022-10-16T14:24:31;4.30;;;0.70;;
49776;SDS011;35673;51.482;7.436;2022-10-16T14:26:59;1.13;;;0.30;;
49776;SDS011;35673;51.482;7.436;2022-10-16T14:29:26;2.47;;;0.57;;
49776;SDS011;35673;51.482;7.436;2022-10-16T14:36:59;3.28;;;0.88;;
49776;SDS011;35673;51.482;7.436;2022-10-16T14:39:31;7.63;;;3.60;;
49776;SDS011;35673;51.482;7.436;2022-10-16T14:41:57;3.55;;;2.42;;
49776;SDS011;35673;51.482;7.436;2022-10-16T14:44:27;5.22;;;3.90;;
49776;SDS011;35673;51.482;7.436;2022-10-16T14:46:56;2.50;;;0.82;;
49776;SDS011;35673;51.482;7.436;2022-10-16T14:49:22;2.83;;;1.10;;
49776;SDS011;35673;51.482;7.436;2022-10-16T14:51:48;1.40;;;0.40;;
49776;SDS011;35673;51.482;7.436;2022-10-16T14:54:15;3.75;;;0.22;;
49776;SDS011;35673;51.482;7.436;2022-10-16T14:56:55;0.70;;;0.40;;
49776;SDS011;35673;51.482;7.436;2022-10-16T14:59:30;3.72;;;1.65;;
49776;SDS011;35673;51.482;7.436;2022-10-16T15:04:50;3.50;;;0.65;;
49776;SDS011;35673;51.482;7.436;2022-10-16T15:07:15;1.92;;;0.63;;
49776;SDS011;35673;51.482;7.436;2022-10-16T15:09:41;2.47;;;0.70;;
49776;SDS011;35673;51.482;7.436;2022-10-16T15:12:07;5.05;;;1.35;;
49776;SDS011;35673;51.482;7.436;2022-10-16T15:14:32;2.63;;;1.05;;
49776;SDS011;35673;51.482;7.436;2022-10-16T15:16:58;1.55;;;0.47;;
49776;SDS011;35673;51.482;7.436;2022-10-16T15:19:24;1.10;;;0.60;;
49776;SDS011;35673;51.482;7.436;2022-10-16T15:21:49;5.38;;;0.60;;
49776;SDS011;35673;51.482;7.436;2022-10-16T15:24:15;4.35;;;0.82;;
49776;SDS011;35673;51.482;7.436;2022-10-16T15:26:41;1.65;;;0.65;;
49776;SDS011;35673;51.482;7.436;2022-10-16T15:29:06;2.75;;;0.80;;
49776;SDS011;35673;51.482;7.436;2022-10-16T15:31:32;2.25;;;1.27;;
49776;SDS011;35673;51.482;7.436;2022-10-16T15:33:58;4.22;;;1.38;;
49776;SDS011;35673;51.482;7.436;2022-10-16T15:36:29;6.13;;;2.63;;
49776;SDS011;35673;51.482;7.436;2022-10-16T15:39:02;5.15;;;2.92;;
49776;SDS011;35673;51.482;7.436;2022-10-16T15:41:35;4.57;;;2.40;;
49776;SDS011;35673;51.482;7.436;2022-10-16T15:44:01;3.55;;;1.60;;
49776;SDS011;35673;51.482;7.436;2022-10-16T15:46:26;4.90;;;1.77;;
49776;SDS011;35673;51.482;7.436;2022-10-16T15:48:55;4.80;;;1.60;;
49776;SDS011;35673;51.482;7.436;2022-10-16T15:51:22;3.00;;;2.20;;
49776;SDS011;35673;51.482;7.436;2022-10-16T15:53:48;6.35;;;2.78;;
49776;SDS011;35673;51.482;7.436;2022-10-16T15:56:15;10.50;;;3.50;;
49776;SDS011;35673;51.482;7.436;2022-10-16T15:58:42;5.47;;;2.95;;
49776;SDS011;35673;51.482;7.436;2022-10-16T16:01:08;4.85;;;2.63;;
49776;SDS011;35673;51.482;7.436;2022-10-16T16:03:36;5.05;;;2.83;;
49776;SDS011;35673;51.482;7.436;2022-10-16T16:06:06;7.75;;;4.57;;
49776;SDS011;35673;51.482;7.436;2022-10-16T16:08:33;4.90;;;2.78;;
49776;SDS011;35673;51.482;7.436;2022-10-16T16:10:59;4.78;;;2.00;;
49776;SDS011;35673;51.482;7.436;2022-10-16T16:13:26;3.35;;;1.25;;
49776;SDS011;35673;51.482;7.436;2022-10-16T16:15:52;3.60;;;1.52;;
49776;SDS011;35673;51.482;7.436;2022-10-16T16:18:18;3.47;;;1.70;;
49776;SDS011;35673;51.482;7.436;2022-10-16T16:20:43;2.45;;;1.48;;
49776;SDS011;35673;51.482;7.436;2022-10-16T16:23:09;3.13;;;1.35;;
49776;SDS011;35673;51.482;7.436;2022-10-16T16:25:34;2.40;;;1.00;;
49776;SDS011;35673;51.482;7.436;2022-10-16T16:28:01;6.25;;;1.83;;
49776;SDS011;35673;51.482;7.436;2022-10-16T16:30:26;2.83;;;1.30;;
49776;SDS011;35673;51.482;7.436;2022-10-16T16:32:52;3.10;;;1.08;;
49776;SDS011;35673;51.482;7.436;2022-10-16T16:35:17;2.80;;;1.02;;
49776;SDS011;35673;51.482;7.436;2022-10-16T16:37:43;5.72;;;1.35;;
49776;SDS011;35673;51.482;7.436;2022-10-16T16:40:08;3.67;;;1.52;;
49776;SDS011;35673;51.482;7.436;2022-10-16T16:42:34;2.10;;;1.40;;
49776;SDS011;35673;51.482;7.436;2022-10-16T16:45:00;4.35;;;2.30;;
49776;SDS011;35673;51.482;7.436;2022-10-16T16:47:25;4.13;;;1.50;;
49776;SDS011;35673;51.482;7.436;2022-10-16T16:49:51;1.50;;;1.15;;
49776;SDS011;35673;51.482;7.436;2022-10-16T16:52:16;3.75;;;1.48;;
49776;SDS011;35673;51.482;7.436;2022-10-16T16:54:42;3.58;;;1.90;;
49776;SDS011;35673;51.482;7.436;2022-10-16T16:57:10;3.33;;;1.30;;
49776;SDS011;35673;51.482;7.436;2022-10-16T16:59:35;2.55;;;1.30;;
49776;SDS011;35673;51.482;7.436;2022-10-16T17:02:01;2.47;;;1.63;;
49776;SDS011;35673;51.482;7.436;2022-10-16T17:04:27;2.83;;;1.50;;
49776;SDS011;35673;51.482;7.436;2022-10-16T17:06:53;6.82;;;2.65;;
49776;SDS011;35673;51.482;7.436;2022-10-16T17:09:19;3.03;;;1.77;;